Armstrong Airport
CYYW : now visible

Airfield :











YOU CAN JOIN US ON...

 
LOGIN :

Register | Disclaimer

   EN    FR    IT 

 









Legend :    VFR   Marginal VFR   IFR   Intensive IFR   Very Intensive IFR
Visi :
Ceiling :
>= 8 km
>= 3000ft
5 to 8 km
1000 to 3000 ft
1500m to 5 km
500 to 1000 ft
800 to 1500m
200 to 500 ft
< 800m
< 200 ft
Symbols :   Thunderstorms  Fog  Heavy snow  Heavy precipitations  Wind > 20 kt






- Airport Elevation : 1058 ft
- IATA code : YYW


CYYW - Armstrong

CURRENT METAR :
  • 241200Z AUTO 17003KT 9SM SCT120 SCT150 M20/M26 A2979 RMK SLP135

EXPIRED METARs :
  • 241100Z AUTO 17005KT 9SM OVC150 M19/M25 A2980 RMK PRESFR SLP137
  • 241000Z AUTO 22002KT 9SM FEW140 M25/M29 A2984 RMK SLP154
  • 240900Z AUTO 13002KT 9SM CLR M25/M29 A2986 RMK SLP162
  • 240800Z AUTO 00000KT 9SM CLR M25/M29 A2989 RMK SLP172

TAF N/A
CZWG FIR / North America



MET'MAP, your aeronautical weather chart ! - Copyright ORBIFLY December 2007 - Disclaimer

ORBIFLY MET'MAP TEAM :

Programming & Development : Alexandra Zaïnal
Original concept : Baudouin d'Aumeries
Technical & hardware support : Manuel Goepfert
Assistance : Marc-Olivier Méhu




SOURCES & CREDITS :

   NOAA       Earth
Advisory